Главная страница
METAR-TAF:

METAR-TAF

Аэропорты :

Мендоса, Аргентина

широта: 32-50S, долгота: 068-47W, высота над уровнем моря: 705 м

Текущие метеонаблюдения

Эта сводка был подготовлена 17 минут назад, в 23:00 UTC
Ветер 3 Узел от юго-восточный
Температура 11°C
Влажность 43%
Давление 1019 hPa
Видимость 10 км и более
Нет облачности ниже 1500 м, и нет кучево-дождевой облачности

METAR: SAME 152300Z 14003KT CAVOK 11/M01 Q1019

Время: 20:17 (23:17 UTC)

Прогноз

Эта сводка был подготовлена 6 часа и 17 минут назад, в 17:00 UTC
Прогноз действительный с 15-го 18 UTC до 16-го 18 UTC
Ветер 15 Узел от южный
Видимость 10 км и более
небольшая облачность на высоте 4000 фута
Отдельные облака на высоте 10000 фута

TAF: SAME 151700Z 1518/1618 18015KT 9999 FEW040 SCT100 TX15/1520Z TN02/1610Z

Метеонаблюдения и прогнозы для более 4000 аэропортов (сводки METAR и TAF).

Имеющиеся станции представлены на карте желтыми и красными точками.

Чтобы увидеть название станции, наведите на нее мышь.

Затем щелкните, чтобы увидеть метеонаблюдения и метеопрогнозы.

Управление картой: чтобы увеличить масштаб, щелкните зеленые кнопки с черным крестиком; чтобы уменьшить масштаб, щелкните зеленую кнопку с тире; для просмотра соседних карт щелкайте зеленые стрелки.


METAR-TAF: